Latest Coastal Weather Observations for Port Fairy

IDV60701

Issued at 4:21 am EST Wednesday 6 May 2015 (issued every 10 minutes, with the page automatically refreshed every 10 minutes)

About coastal observations | Map of coastal stations | Coastal observations for VIC | Marine services | Other Formats
Station Details ID: 090175 Name: PORT FAIRY AWS Lat: -38.39 Lon: 142.23 Height: 10.0 m
Data from the previous 72 hours. | See also: Recent months at Port Fairy
Date/Time
EST
Temp

°C
Wind Pressure Rain
since 9am
mm
Weather Cloud Vis
km
Sea
Height
m
Swell
Dir
 
Speed
knots
Gust
knots
hPa Trend Height
m
Period
s
Dir
06/04:00am 8.7 NNW 9 15 1008.4 - 10.2 - - - - - - -
06/03:30am 8.9 NNW 10 16 1008.2 - 10.2 - - - - - - -
06/03:00am 9.1 NW 10 16 1008.3 - 10.0 Recent precip. - - - - - -
06/02:30am 8.8 NNW 9 13 1008.3 - 10.0 - - - - - - -
06/02:00am 8.9 NNW 9 15 1008.5 - 9.6 - - - - - - -
06/01:30am 9.3 NW 9 15 1008.2 - 8.2 - - - - - - -
06/01:00am 9.2 NW 10 16 1007.9 - 6.0 - - - - - - -
06/12:30am 9.1 NW 9 15 1007.7 - 5.2 - - - - - - -
06/12:00am 9.3 NW 8 15 1007.4 - 3.2 Recent precip. - - - - - -
 
Date/Time
EST
Temp

°C
Wind Pressure Rain
since 9am
mm
Weather Cloud Vis
km
Sea
Height
m
Swell
Dir
 
Speed
knots
Gust
knots
hPa Trend Height
m
Period
s
Dir
05/11:30pm 9.1 NNW 11 17 1007.2 - 2.2 - - - - - - -
05/11:00pm 9.6 NW 10 17 1007.3 - 2.2 - - - - - - -
05/10:30pm 9.8 NW 9 16 1007.0 - 2.0 - - - - - - -
05/10:00pm 9.9 NW 10 17 1006.8 - 1.8 - - - - - - -
05/09:30pm 9.9 NW 10 17 1006.4 - 1.6 - - - - - - -
05/09:00pm 10.0 NW 9 15 1005.9 - 1.4 Recent precip. - - - - - -
05/08:30pm 10.2 NW 11 20 1005.4 - 1.2 - - - - - - -
05/08:00pm 10.3 NW 10 17 1005.1 - 1.2 - - - - - - -
05/07:30pm 10.6 NW 11 21 1004.8 - 1.2 - - - - - - -
05/07:00pm 11.2 NW 11 19 1004.2 - 1.0 - - - - - - -
05/06:30pm 11.9 WNW 15 23 1003.7 - 1.0 - - - - - - -
05/06:10pm 11.3 WNW 15 28 1003.2 - 1.0 - - - - - - -
05/06:00pm 11.6 NW 11 21 1003.2 - 1.0 Recent precip. - - - - - -
05/05:36pm 11.3 WNW 17 27 1002.6 - 1.0 - - - - - - -
05/05:30pm 11.3 WNW 17 26 1002.5 - 1.0 - - - - - - -
05/05:06pm 12.0 W 19 29 1002.4 - 0.8 - - - - - - -
05/05:00pm 12.5 WNW 19 29 1002.1 - 0.4 - - - - - - -
05/04:30pm 13.5 WNW 20 30 1001.2 - 0.4 - - - - - - -
05/04:00pm 13.9 WNW 25 39 1000.5 - 0.4 - - - - - - -
05/03:30pm 14.3 WNW 24 37 999.8 - 0.4 - - - - - - -
05/03:00pm 13.4 WNW 21 35 999.5 - 0.4 - - - - - - -
05/02:30pm 14.4 WNW 24 38 998.8 - 0.4 - - - - - - -
05/02:00pm 14.2 WNW 21 35 998.4 - 0.4 - - - - - - -
05/01:30pm 14.1 WNW 24 42 997.9 - 0.4 - - - - - - -
05/01:00pm 14.3 WNW 15 30 997.7 - 0.4 - - - - - - -
05/12:30pm 12.6 NW 16 32 997.7 - 0.4 - - - - - - -
05/12:19pm 13.4 NW 15 26 997.9 - 0.4 - - - - - - -
05/12:00pm 11.8 NW 14 25 998.2 - 0.4 Recent precip. - - - - - -
05/11:30am 12.9 NW 17 30 997.7 - 0.0 - - - - - - -
05/11:00am 11.6 NNW 16 29 997.3 - 0.0 - - - - - - -
05/10:31am 11.5 NW 16 26 997.2 - 0.0 - - - - - - -
05/10:30am 11.5 NW 17 26 997.2 - 0.0 - - - - - - -
05/10:20am 11.7 NW 17 27 997.2 - 0.0 - - - - - - -
05/10:00am 11.2 NW 13 23 997.0 - 0.0 - - - - - - -
05/09:30am 11.3 NW 14 24 997.0 - 0.0 - - - - - - -
05/09:00am 10.7 NNW 12 21 997.2 - 1.8 - - - - - - -
05/08:30am 10.8 NW 11 20 997.2 - 1.8 - - - - - - -
05/08:00am 10.9 NNW 12 29 996.9 - 1.8 - - - - - - -
05/07:30am 11.1 NNW 11 19 996.4 - 1.8 - - - - - - -
05/07:00am 11.0 NNW 10 15 996.6 - 1.8 - - - - - - -
05/06:30am 11.8 NW 11 18 997.1 - 1.4 - - - - - - -
05/06:00am 13.1 WNW 14 26 996.7 - 1.4 - - - - - - -
05/05:58am 13.1 NW 15 26 996.7 - 1.4 - - - - - - -
05/05:30am 13.5 NW 14 24 996.4 - 1.4 - - - - - - -
05/05:22am 13.6 NW 15 26 996.9 - 1.4 - - - - - - -
05/05:00am 13.6 NW 10 17 996.5 - 1.4 - - - - - - -
05/04:30am 13.9 NNW 14 21 995.9 - 1.4 - - - - - - -
05/04:14am 13.8 NNW 15 27 996.1 - 1.4 - - - - - - -
05/04:00am 14.0 NNW 16 25 996.5 - 1.4 - - - - - - -
05/03:35am 14.2 NNW 15 28 997.0 - 1.2 - - - - - - -
05/03:30am 14.3 NNW 14 22 997.2 - 1.2 - - - - - - -
05/03:05am 14.7 NW 15 28 997.4 - 1.0 - - - - - - -
05/03:00am 15.0 NW 12 18 997.6 - 0.8 Recent precip. - - - - - -
05/02:30am 16.4 NW 9 15 998.1 - 0.4 - - - - - - -
05/02:00am 16.9 N 11 18 997.9 - 0.4 - - - - - - -
05/01:30am 16.8 NNW 12 20 997.9 - 0.4 - - - - - - -
05/01:00am 16.5 N 16 26 998.4 - 0.4 - - - - - - -
05/12:30am 16.9 N 18 30 998.4 - 0.4 - - - - - - -
05/12:00am 16.6 N 18 29 999.1 - 0.4 - - - - - - -
 
Date/Time
EST
Temp

°C
Wind Pressure Rain
since 9am
mm
Weather Cloud Vis
km
Sea
Height
m
Swell
Dir
 
Speed
knots
Gust
knots
hPa Trend Height
m
Period
s
Dir
04/11:34pm 16.9 N 18 28 1000.2 - 0.4 - - - - - - -
04/11:30pm 16.9 N 17 26 1000.3 - 0.4 - - - - - - -
04/11:13pm 17.3 N 19 29 1000.7 - 0.4 - - - - - - -
04/11:00pm 17.2 N 16 25 1000.9 - 0.4 - - - - - - -
04/10:30pm 17.4 N 18 27 1001.6 - 0.4 - - - - - - -
04/10:16pm 17.2 N 16 26 1001.6 - 0.4 - - - - - - -
04/10:00pm 16.9 N 13 19 1001.8 - 0.4 - - - - - - -
04/09:30pm 17.4 NNW 15 26 1002.2 - 0.4 - - - - - - -
04/09:25pm 17.8 NNW 15 26 1002.4 - 0.2 - - - - - - -
04/09:00pm 18.9 NNW 13 24 1002.4 - 0.0 - - - - - - -
04/08:30pm 19.4 N 11 19 1002.4 - 0.0 - - - - - - -
04/08:00pm 18.8 N 10 16 1001.5 - 0.0 - - - - - - -
04/07:30pm 18.7 N 8 11 1001.3 - 0.0 - - - - - - -
04/07:00pm 19.5 N 10 16 1001.5 - 0.0 - - - - - - -
04/06:30pm 20.2 N 10 15 1001.7 - 0.0 - - - - - - -
04/06:00pm 20.8 N 11 16 1001.8 - 0.0 - - - - - - -
04/05:30pm 21.2 N 12 17 1002.4 - 0.0 - - - - - - -
04/05:00pm 21.6 N 9 17 1002.9 - 0.0 - - - - - - -
04/04:30pm 21.0 NNE 9 15 1003.1 - 0.0 - - - - - - -
04/04:00pm 21.5 N 12 18 1004.2 - 0.0 - - - - - - -
04/03:30pm 21.2 N 12 18 1004.5 - 0.0 - - - - - - -
04/03:00pm 21.1 N 11 17 1005.2 - 0.0 - - - - - - -
04/02:30pm 20.8 N 10 17 1005.4 - 0.0 - - - - - - -
04/02:00pm 20.8 N 12 20 1006.3 - 0.0 - - - - - - -
04/01:39pm 21.1 N 15 26 1006.9 - 0.0 - - - - - - -
04/01:30pm 21.7 N 13 20 1007.2 - 0.0 - - - - - - -
04/01:00pm 21.4 N 12 19 1008.2 - 0.0 - - - - - - -
04/12:30pm 20.3 N 13 20 1008.5 - 0.0 - - - - - - -
04/12:00pm 20.1 N 12 18 1009.6 - 0.0 - - - - - - -
04/11:30am 18.7 N 14 19 1010.7 - 0.0 - - - - - - -
04/11:00am 17.6 N 13 19 1011.0 - 0.0 - - - - - - -
04/10:30am 16.1 N 11 20 1011.3 - 0.0 - - - - - - -
04/10:00am 15.7 N 8 15 1011.9 - 0.0 - - - - - - -
04/09:30am 14.3 N 8 13 1012.6 - 0.0 - - - - - - -
04/09:00am 12.6 N 9 12 1012.8 - 0.2 - - - - - - -
04/08:30am 11.6 NNE 8 12 1012.8 - 0.2 - - - - - - -
04/08:00am 9.7 N 8 10 1013.2 - 0.2 - - - - - - -
04/07:30am 8.7 N 7 9 1013.5 - 0.2 - - - - - - -
04/07:00am 8.2 N 5 8 1014.0 - 0.2 - - - - - - -
04/06:30am 8.3 N 6 8 1014.4 - 0.2 - - - - - - -
04/06:00am 8.4 N 7 9 1014.3 - 0.2 - - - - - - -
04/05:30am 8.4 N 7 11 1014.1 - 0.2 - - - - - - -
04/05:00am 8.4 N 7 10 1014.5 - 0.2 - - - - - - -
04/04:30am 8.2 N 6 8 1014.8 - 0.2 - - - - - - -
04/04:00am 8.5 N 6 8 1014.7 - 0.2 - - - - - - -
04/03:30am 8.4 N 4 5 1014.9 - 0.2 - - - - - - -
04/03:00am 9.1 N 7 10 1015.0 - 0.0 - - - - - - -
04/02:30am 9.3 NNE 6 8 1015.4 - 0.0 - - - - - - -
04/02:00am 8.9 NNE 4 5 1015.9 - 0.0 - - - - - - -
04/01:30am 9.0 NNE 5 7 1016.2 - 0.0 - - - - - - -
04/01:00am 8.8 NNE 3 5 1016.7 - 0.0 - - - - - - -
04/12:30am 9.3 NNE 4 6 1016.9 - 0.0 - - - - - - -
04/12:00am 9.5 NNE 4 6 1017.0 - 0.0 - - - - - - -
 
Date/Time
EST
Temp

°C
Wind Pressure Rain
since 9am
mm
Weather Cloud Vis
km
Sea
Height
m
Swell
Dir
 
Speed
knots
Gust
knots
hPa Trend Height
m
Period
s
Dir
03/11:30pm 9.1 N 4 5 1017.3 - 0.0 - - - - - - -
03/11:00pm 9.2 NNE 3 5 1017.5 - 0.0 - - - - - - -
03/10:30pm 8.9 N 4 5 1017.7 - 0.0 - - - - - - -
03/10:00pm 9.1 N 2 3 1017.7 - 0.0 - - - - - - -
03/09:30pm 9.7 N 3 3 1018.1 - 0.0 - - - - - - -
03/09:00pm 9.7 NNW 2 3 1018.2 - 0.0 - - - - - - -
03/08:30pm 10.4 CALM 0 0 1018.3 - 0.0 - - - - - - -
03/08:00pm 11.2 CALM 0 0 1018.1 - 0.0 - - - - - - -
03/07:30pm 11.2 CALM 0 0 1018.4 - 0.0 - - - - - - -
03/07:00pm 11.9 CALM 0 1 1018.3 - 0.0 - - - - - - -
03/06:30pm 12.2 CALM 0 0 1018.2 - 0.0 - - - - - - -
03/06:00pm 12.6 WSW 3 4 1018.2 - 0.0 - - - - - - -
03/05:30pm 13.6 WSW 3 5 1018.0 - 0.0 - - - - - - -
03/05:00pm 14.0 WSW 5 6 1018.2 - 0.0 - - - - - - -
03/04:30pm 14.8 SW 5 7 1018.3 - 0.0 - - - - - - -
03/04:00pm 14.5 WSW 8 11 1018.5 - 0.0 - - - - - - -
03/03:30pm 14.0 WSW 6 9 1018.6 - 0.0 - - - - - - -
03/03:00pm 14.9 WSW 8 11 1018.6 - 0.0 - - - - - - -
03/02:30pm 15.2 WSW 9 11 1018.6 - 0.0 - - - - - - -
03/02:00pm 15.2 WSW 9 11 1018.5 - 0.0 - - - - - - -
03/01:30pm 15.5 WSW 8 10 1018.9 - 0.0 - - - - - - -
03/01:00pm 15.5 WSW 10 12 1019.0 - 0.0 - - - - - - -
03/12:30pm 15.4 WSW 8 11 1019.1 - 0.0 - - - - - - -
03/12:00pm 15.4 WSW 7 10 1019.3 - 0.0 - - - - - - -
03/11:30am 15.1 W 9 12 1019.7 - 0.0 - - - - - - -
03/11:00am 15.1 W 7 9 1019.5 - 0.0 - - - - - - -
03/10:30am 14.7 W 5 8 1019.5 - 0.0 - - - - - - -
03/10:00am 14.3 WNW 6 10 1019.7 - 0.0 - - - - - - -
03/09:30am 14.0 NW 5 8 1019.8 - 0.0 - - - - - - -
03/09:00am 12.7 NW 5 8 1019.7 - 1.2 - - - - - - -
03/08:30am 12.3 NNW 6 9 1019.7 - 1.2 - - - - - - -
03/08:00am 12.1 NW 5 8 1019.4 - 1.2 - - - - - - -
03/07:30am 12.0 NW 4 7 1018.7 - 1.2 - - - - - - -
03/07:00am 11.5 NW 5 7 1018.5 - 1.2 - - - - - - -
03/06:30am 12.0 NW 5 8 1018.4 - 1.0 - - - - - - -
03/06:00am 11.8 NNW 5 9 1018.1 - 1.0 - - - - - - -
03/05:30am 12.1 NW 4 7 1017.9 - 1.0 - - - - - - -
03/05:00am 12.0 NW 5 8 1017.7 - 1.0 - - - - - - -
03/04:30am 12.2 NW 6 8 1017.5 - 0.8 - - - - - - -

Other Formats:

Comma delimited format used in spreadsheet applications
http://www.bom.gov.au/fwo/IDV60701/IDV60701.94830.axf

JavaScript Object Notation format (JSON) in row-major order
http://www.bom.gov.au/fwo/IDV60701/IDV60701.94830.json